TimeCST,TemperatureF,Dew PointF,Humidity,Sea Level PressureIn,VisibilityMPH,Wind Direction,Wind SpeedMPH,Gust SpeedMPH,PrecipitationIn,Events,Conditions,WindDirDegrees,DateUTC
12:54 AM,1.0,-8.0,66,30.31,10.0,North,10.4,-,N/A,,Clear,360,2013-12-30 06:54:00
1:54 AM,-0.9,-9.9,66,30.32,10.0,NNW,6.9,-,N/A,,Clear,330,2013-12-30 07:54:00
2:54 AM,-2.0,-11.9,63,30.33,10.0,North,10.4,-,N/A,,Clear,350,2013-12-30 08:54:00
3:54 AM,-2.9,-13.0,62,30.32,10.0,North,6.9,-,N/A,,Clear,350,2013-12-30 09:54:00
4:54 AM,-4.0,-13.0,65,30.33,10.0,NNW,4.6,-,N/A,,Clear,330,2013-12-30 10:54:00
5:54 AM,-6.0,-14.1,68,30.35,10.0,NW,6.9,-,N/A,,Clear,310,2013-12-30 11:54:00
6:54 AM,-7.1,-14.1,72,30.37,10.0,WNW,5.8,-,N/A,,Mostly Cloudy,290,2013-12-30 12:54:00
7:54 AM,-6.0,-14.1,68,30.38,10.0,Calm,Calm,-,N/A,,Mostly Cloudy,0,2013-12-30 13:54:00
8:54 AM,-6.0,-15.0,65,30.40,10.0,NW,4.6,-,N/A,,Mostly Cloudy,310,2013-12-30 14:54:00
9:54 AM,-2.9,-13.0,62,30.40,10.0,Calm,Calm,-,N/A,,Overcast,0,2013-12-30 15:54:00
10:54 AM,-0.9,-11.9,60,30.37,10.0,Calm,Calm,-,N/A,,Overcast,0,2013-12-30 16:54:00
11:54 AM,1.0,-9.9,60,30.35,10.0,Calm,Calm,-,N/A,,Overcast,0,2013-12-30 17:54:00
12:54 PM,1.9,-8.0,63,30.31,10.0,Calm,Calm,-,N/A,,Overcast,0,2013-12-30 18:54:00
1:54 PM,3.9,-8.0,58,30.31,10.0,WNW,5.8,-,N/A,,Overcast,300,2013-12-30 19:54:00
2:54 PM,3.0,-8.0,60,30.30,10.0,WNW,4.6,-,N/A,,Overcast,300,2013-12-30 20:54:00
3:54 PM,3.9,-9.9,53,30.29,10.0,Calm,Calm,-,N/A,,Overcast,0,2013-12-30 21:54:00
4:54 PM,3.9,-8.0,58,30.29,4.0,Calm,Calm,-,0.00,Snow,Light Snow,0,2013-12-30 22:54:00
5:42 PM,3.2,-4.0,72,30.24,2.0,West,3.5,-,0.01,Snow,Light Snow,280,2013-12-30 23:42:00
5:54 PM,3.9,-2.9,73,30.30,2.0,WNW,3.5,-,0.01,Snow,Light Snow,290,2013-12-30 23:54:00
6:54 PM,3.0,-2.0,80,30.28,2.0,Calm,Calm,-,0.01,Snow,Light Snow,0,2013-12-31 00:54:00
7:54 PM,3.0,-2.0,80,30.28,2.0,Calm,Calm,-,0.01,Snow,Light Snow,0,2013-12-31 01:54:00
8:38 PM,3.2,-2.2,78,30.22,4.0,West,3.5,-,0.00,Snow,Light Snow,280,2013-12-31 02:38:00
8:54 PM,3.0,-2.0,80,30.29,4.0,West,3.5,-,0.00,Snow,Light Snow,270,2013-12-31 02:54:00
9:54 PM,3.0,-2.0,80,30.28,3.0,NW,4.6,-,0.01,Snow,Light Snow,310,2013-12-31 03:54:00
10:12 PM,3.2,-0.4,85,30.21,2.5,NW,3.5,-,0.00,Snow,Light Snow,320,2013-12-31 04:12:00
10:40 PM,3.2,-2.2,78,30.21,3.0,NNW,4.6,-,0.00,Snow,Light Snow,330,2013-12-31 04:40:00
10:54 PM,3.0,-2.0,80,30.27,3.0,NW,3.5,-,0.00,Snow,Light Snow,320,2013-12-31 04:54:00
11:54 PM,3.0,-2.0,80,30.27,5.0,WNW,3.5,-,0.01,Snow,Light Snow,300,2013-12-31 05:54:00